Mississippi Star — 9HA2441 — position and weather

sailwx.info

Track history (hours):
 
Tides and Currents Weather Stations Pressure Air Temp Water Temp Dewpoint Dewpoint Depression Visibility Wind Speed Wind Dir Waves Ship Positions

Mississippi Star

Last reported at 2014-Dec-20 16:18 UTC. Time now 2014-Dec-20 23:02 UTC.
Position N 57°60' E 008°24'.

Length 128 m; draft 6.1 m.

Type: Ship. MMSI: 248621000.

Date/timePositionNaut miles runAvg speedWind from/ knotsBaromVisibWave heightAir tempDewpointWater temp
2014-Dec-20 16:18N 57°60' E 008°24'10 8.1
2014-Dec-20 15:07N 58°04' E 008°40'7110.2
2014-Dec-20 08:11N 58°52' E 010°20'610.4
2014-Dec-20 07:33N 58°57' E 010°29'1010.4
2014-Dec-20 06:33N 59°06' E 010°35'1010.4
2014-Dec-20 05:34N 59°17' E 010°35'4 3.8
2014-Dec-20 04:28N 59°20' E 010°30'0 0.0
2014-Dec-20 03:31N 59°20' E 010°30'0 0.1
2014-Dec-20 02:29N 59°20' E 010°30'0 0.0
2014-Dec-20 01:32N 59°20' E 010°30'0 0.0
2014-Dec-20 00:28N 59°20' E 010°30'0 0.0
2014-Dec-19 23:31N 59°20' E 010°30'0 0.0
2014-Dec-19 22:31N 59°20' E 010°30'0 0.0
2014-Dec-19 21:31N 59°20' E 010°30'0 0.0
2014-Dec-19 20:31N 59°20' E 010°30'0 0.0
2014-Dec-19 19:28N 59°20' E 010°30'0 0.0
2014-Dec-19 18:31N 59°20' E 010°30'0 0.0
2014-Dec-19 17:31N 59°20' E 010°30'0 0.1
2014-Dec-19 16:22N 59°20' E 010°30'0 0.1
2014-Dec-19 15:31N 59°20' E 010°30'0 0.0
2014-Dec-19 14:28N 59°20' E 010°30'0 0.0
2014-Dec-19 13:31N 59°20' E 010°30'0 0.0
2014-Dec-19 12:31N 59°20' E 010°30'0 0.0
2014-Dec-19 11:31N 59°20' E 010°30'0 0.0
2014-Dec-19 10:31N 59°20' E 010°30'0 0.0
2014-Dec-19 09:31N 59°20' E 010°30'0 0.0
2014-Dec-19 08:31N 59°20' E 010°30'0 0.0
2014-Dec-19 07:31N 59°20' E 010°30'0 0.0
2014-Dec-19 06:31N 59°20' E 010°30'0 0.0
2014-Dec-19 05:31N 59°20' E 010°30'1 0.7
2014-Dec-19 04:33N 59°20' E 010°31'0 0.0
2014-Dec-19 03:30N 59°20' E 010°31'0 0.0
2014-Dec-19 02:33N 59°20' E 010°31'0 0.0
2014-Dec-19 01:33N 59°20' E 010°31'0 0.0
2014-Dec-19 00:33N 59°20' E 010°31'0 0.0
2014-Dec-18 23:21N 59°20' E 010°31'0 0.0
2014-Dec-18 22:33N 59°20' E 010°31'0 0.0
2014-Dec-18 21:21N 59°20' E 010°31'0 0.0
2014-Dec-18 20:30N 59°20' E 010°31'0 0.0
2014-Dec-18 19:33N 59°20' E 010°31'0 0.0
2014-Dec-18 18:33N 59°20' E 010°31'0 0.0
2014-Dec-18 16:33N 59°20' E 010°31'0 0.0
2014-Dec-18 15:21N 59°20' E 010°31'0 0.0
2014-Dec-18 12:21N 59°20' E 010°31'0 0.0
2014-Dec-18 11:33N 59°20' E 010°31'7 7.3
2014-Dec-18 10:33N 59°13' E 010°38'1110.7
2014-Dec-18 09:33N 59°03' E 010°34'1211.6
2014-Dec-18 08:33N 58°52' E 010°29'1212.2
2014-Dec-18 07:34N 58°40' E 010°22'1211.9
2014-Dec-18 06:33N 58°29' E 010°13'1411.7
2014-Dec-18 05:20N 58°18' E 009°55'16211.7
2014-Dec-17 15:33N 56°03' E 007°12'1111.3
2014-Dec-17 14:33N 55°53' E 007°02'1711.6
2014-Dec-17 13:06N 55°38' E 006°48'611.6
2014-Dec-17 12:32N 55°32' E 006°43'2411.7
2014-Dec-17 10:29N 55°11' E 006°23'6111.7
2014-Dec-17 05:17N 54°23' E 005°17'811.5
2014-Dec-17 04:34N 54°17' E 005°08'1211.6
2014-Dec-17 03:33N 54°08' E 004°55'1211.8
2014-Dec-17 02:31N 53°59' E 004°42'118 9.1
2014-Dec-16 13:30N 52°06' E 003°43'9 9.5
2014-Dec-16 12:33N 52°02' E 003°56'10 9.7
2014-Dec-16 11:34N 51°57' E 004°10'7 6.5
2014-Dec-16 10:25N 51°53' E 004°19'0 0.0
2014-Dec-16 09:28N 51°53' E 004°19'0 0.0
2014-Dec-16 08:10N 51°53' E 004°19'0 0.0
2014-Dec-16 07:19N 51°53' E 004°19'0 0.0
2014-Dec-16 00:33N 51°53' E 004°19'0 0.0
2014-Dec-15 23:07N 51°53' E 004°19'0 0.0
2014-Dec-15 22:31N 51°53' E 004°19'0 0.0
2014-Dec-15 21:25N 51°53' E 004°19'0 0.0
2014-Dec-15 20:28N 51°53' E 004°19'0 0.0
2014-Dec-15 19:19N 51°53' E 004°19'0 0.0
2014-Dec-15 18:31N 51°53' E 004°19'0 0.0
2014-Dec-15 17:31N 51°53' E 004°19'0 0.0
2014-Dec-15 16:25N 51°53' E 004°19'0 0.0
2014-Dec-15 15:25N 51°53' E 004°19'0 0.0
2014-Dec-15 14:31N 51°53' E 004°19'0 0.0
2014-Dec-15 13:31N 51°53' E 004°19'0 0.0
2014-Dec-15 12:22N 51°53' E 004°19'0 0.0
2014-Dec-15 11:25N 51°53' E 004°19'0 0.0
2014-Dec-15 10:16N 51°53' E 004°19'0 0.0
2014-Dec-15 09:19N 51°53' E 004°19'0 0.0
2014-Dec-15 08:25N 51°53' E 004°19'0 0.0
2014-Dec-15 07:31N 51°53' E 004°19'0 0.0
2014-Dec-15 06:31N 51°53' E 004°19'0 0.0
2014-Dec-15 04:31N 51°53' E 004°19'0 0.0
2014-Dec-15 03:10N 51°53' E 004°19'0 0.0
2014-Dec-15 02:28N 51°53' E 004°19'0 0.0
2014-Dec-15 01:31N 51°53' E 004°19'0 0.0
2014-Dec-15 00:31N 51°53' E 004°19'0 0.0
2014-Dec-14 23:22N 51°53' E 004°19'0 0.0
2014-Dec-14 22:31N 51°53' E 004°19'0 0.1
2014-Dec-14 21:33N 51°53' E 004°19'7 6.8
2014-Dec-14 20:33N 51°57' E 004°10'1211.6
2014-Dec-14 19:34N 52°01' E 003°52'1110.7
2014-Dec-14 18:32N 51°57' E 003°35'4112.1
2014-Dec-14 15:10N 51°42' E 002°34'812.3
2014-Dec-14 14:33N 51°36' E 002°26'1212.0
2014-Dec-14 13:31N 51°27' E 002°14'1111.9
2014-Dec-14 12:33N 51°16' E 002°06'1111.5
2014-Dec-14 11:33N 51°09' E 001°52'7 6.7
2014-Dec-14 10:34N 51°02' E 001°52'1313.2
2014-Dec-14 09:33N 51°04' E 002°13'5 4.6
2014-Dec-14 08:34N 51°03' E 002°20'3 2.2
2014-Dec-14 07:07N 51°02' E 002°16'0 0.0
2014-Dec-14 05:31N 51°02' E 002°16'0 0.0
2014-Dec-14 00:25N 51°02' E 002°16'0 0.0
2014-Dec-13 23:07N 51°02' E 002°16'0 0.0
2014-Dec-13 20:16N 51°02' E 002°16'0 0.0
2014-Dec-13 16:28N 51°02' E 002°16'0 0.1
2014-Dec-13 13:29N 51°02' E 002°16'3 2.5
2014-Dec-13 12:14N 51°03' E 002°21'5 6.6
2014-Dec-13 11:27N 51°03' E 002°13'1011.1
2014-Dec-13 10:33N 51°02' E 001°57'5 4.6
2014-Dec-13 09:31N 51°04' E 001°50'0 0.0
2014-Dec-13 08:31N 51°04' E 001°50'0 0.1
2014-Dec-13 07:31N 51°03' E 001°50'0 0.1
2014-Dec-13 06:31N 51°04' E 001°50'0 0.0
2014-Dec-13 05:31N 51°04' E 001°50'0 0.0
2014-Dec-13 04:31N 51°04' E 001°50'0 0.0
2014-Dec-13 03:31N 51°04' E 001°50'0 0.0
2014-Dec-13 02:31N 51°04' E 001°50'0 0.1
2014-Dec-13 01:31N 51°03' E 001°50'0 0.1
2014-Dec-13 00:31N 51°03' E 001°50'0 0.0
2014-Dec-12 23:31N 51°03' E 001°50'0 0.0
2014-Dec-12 22:31N 51°03' E 001°50'0 0.0
2014-Dec-12 21:31N 51°03' E 001°50'0 0.0
2014-Dec-12 20:31N 51°03' E 001°50'0 0.2
2014-Dec-12 19:31N 51°03' E 001°50'4 4.5
2014-Dec-12 18:33N 51°05' E 001°43'8 8.2
2014-Dec-12 17:33N 51°13' E 001°46'9 9.0
2014-Dec-12 16:33N 51°20' E 001°53'9 8.9
2014-Dec-12 15:33N 51°28' E 002°02'9 9.2
2014-Dec-12 14:33N 51°34' E 002°12'1110.2
2014-Dec-12 13:30N 51°43' E 002°23'167 5.2
2014-Dec-11 05:29N 54°05' E 004°47'5 5.3
2014-Dec-11 04:32N 54°05' E 004°56'5 5.4
2014-Dec-11 03:32N 54°05' E 005°05'5 5.5
2014-Dec-11 02:33N 54°06' E 005°14'6 5.5
2014-Dec-11 01:33N 54°07' E 005°23'5 5.5
2014-Dec-11 00:34N 54°08' E 005°32'5 4.8
2014-Dec-10 23:32N 54°09' E 005°40'5 4.7
2014-Dec-10 22:33N 54°09' E 005°48'5 4.6
2014-Dec-10 21:33N 54°10' E 005°56'4 4.2
2014-Dec-10 20:32N 54°11' E 006°03'  
Track history (hours):
 
Tides and Currents Weather Stations Pressure Air Temp Water Temp Dewpoint Dewpoint Depression Visibility Wind Speed Wind Dir Waves Ship Positions

Mississippi Star

Last reported at 2014-Dec-20 16:18 UTC. Time now 2014-Dec-20 23:02 UTC.
Position N 57°60' E 008°24'.

Length 128 m; draft 6.1 m.

Type: Ship. MMSI: 248621000.

Date/timePositionNaut miles runAvg speedWind from/ knotsBaromVisibWave heightAir tempDewpointWater temp
2014-Dec-20 16:18N 57°60' E 008°24'10 8.1
2014-Dec-20 15:07N 58°04' E 008°40'7110.2
2014-Dec-20 08:11N 58°52' E 010°20'610.4
2014-Dec-20 07:33N 58°57' E 010°29'1010.4
2014-Dec-20 06:33N 59°06' E 010°35'1010.4
2014-Dec-20 05:34N 59°17' E 010°35'4 3.8
2014-Dec-20 04:28N 59°20' E 010°30'0 0.0
2014-Dec-20 03:31N 59°20' E 010°30'0 0.1
2014-Dec-20 02:29N 59°20' E 010°30'0 0.0
2014-Dec-20 01:32N 59°20' E 010°30'0 0.0
2014-Dec-20 00:28N 59°20' E 010°30'0 0.0
2014-Dec-19 23:31N 59°20' E 010°30'0 0.0
2014-Dec-19 22:31N 59°20' E 010°30'0 0.0
2014-Dec-19 21:31N 59°20' E 010°30'0 0.0
2014-Dec-19 20:31N 59°20' E 010°30'0 0.0
2014-Dec-19 19:28N 59°20' E 010°30'0 0.0
2014-Dec-19 18:31N 59°20' E 010°30'0 0.0
2014-Dec-19 17:31N 59°20' E 010°30'0 0.1
2014-Dec-19 16:22N 59°20' E 010°30'0 0.1
2014-Dec-19 15:31N 59°20' E 010°30'0 0.0
2014-Dec-19 14:28N 59°20' E 010°30'0 0.0
2014-Dec-19 13:31N 59°20' E 010°30'0 0.0
2014-Dec-19 12:31N 59°20' E 010°30'0 0.0
2014-Dec-19 11:31N 59°20' E 010°30'0 0.0
2014-Dec-19 10:31N 59°20' E 010°30'0 0.0
2014-Dec-19 09:31N 59°20' E 010°30'0 0.0
2014-Dec-19 08:31N 59°20' E 010°30'0 0.0
2014-Dec-19 07:31N 59°20' E 010°30'0 0.0
2014-Dec-19 06:31N 59°20' E 010°30'0 0.0
2014-Dec-19 05:31N 59°20' E 010°30'1 0.7
2014-Dec-19 04:33N 59°20' E 010°31'0 0.0
2014-Dec-19 03:30N 59°20' E 010°31'0 0.0
2014-Dec-19 02:33N 59°20' E 010°31'0 0.0
2014-Dec-19 01:33N 59°20' E 010°31'0 0.0
2014-Dec-19 00:33N 59°20' E 010°31'0 0.0
2014-Dec-18 23:21N 59°20' E 010°31'0 0.0
2014-Dec-18 22:33N 59°20' E 010°31'0 0.0
2014-Dec-18 21:21N 59°20' E 010°31'0 0.0
2014-Dec-18 20:30N 59°20' E 010°31'0 0.0
2014-Dec-18 19:33N 59°20' E 010°31'0 0.0
2014-Dec-18 18:33N 59°20' E 010°31'0 0.0
2014-Dec-18 16:33N 59°20' E 010°31'0 0.0
2014-Dec-18 15:21N 59°20' E 010°31'0 0.0
2014-Dec-18 12:21N 59°20' E 010°31'0 0.0
2014-Dec-18 11:33N 59°20' E 010°31'7 7.3
2014-Dec-18 10:33N 59°13' E 010°38'1110.7
2014-Dec-18 09:33N 59°03' E 010°34'1211.6
2014-Dec-18 08:33N 58°52' E 010°29'1212.2
2014-Dec-18 07:34N 58°40' E 010°22'1211.9
2014-Dec-18 06:33N 58°29' E 010°13'1411.7
2014-Dec-18 05:20N 58°18' E 009°55'16211.7
2014-Dec-17 15:33N 56°03' E 007°12'1111.3
2014-Dec-17 14:33N 55°53' E 007°02'1711.6
2014-Dec-17 13:06N 55°38' E 006°48'611.6
2014-Dec-17 12:32N 55°32' E 006°43'2411.7
2014-Dec-17 10:29N 55°11' E 006°23'6111.7
2014-Dec-17 05:17N 54°23' E 005°17'811.5
2014-Dec-17 04:34N 54°17' E 005°08'1211.6
2014-Dec-17 03:33N 54°08' E 004°55'1211.8
2014-Dec-17 02:31N 53°59' E 004°42'118 9.1
2014-Dec-16 13:30N 52°06' E 003°43'9 9.5
2014-Dec-16 12:33N 52°02' E 003°56'10 9.7
2014-Dec-16 11:34N 51°57' E 004°10'7 6.5
2014-Dec-16 10:25N 51°53' E 004°19'0 0.0
2014-Dec-16 09:28N 51°53' E 004°19'0 0.0
2014-Dec-16 08:10N 51°53' E 004°19'0 0.0
2014-Dec-16 07:19N 51°53' E 004°19'0 0.0
2014-Dec-16 00:33N 51°53' E 004°19'0 0.0
2014-Dec-15 23:07N 51°53' E 004°19'0 0.0
2014-Dec-15 22:31N 51°53' E 004°19'0 0.0
2014-Dec-15 21:25N 51°53' E 004°19'0 0.0
2014-Dec-15 20:28N 51°53' E 004°19'0 0.0
2014-Dec-15 19:19N 51°53' E 004°19'0 0.0
2014-Dec-15 18:31N 51°53' E 004°19'0 0.0
2014-Dec-15 17:31N 51°53' E 004°19'0 0.0
2014-Dec-15 16:25N 51°53' E 004°19'0 0.0
2014-Dec-15 15:25N 51°53' E 004°19'0 0.0
2014-Dec-15 14:31N 51°53' E 004°19'0 0.0
2014-Dec-15 13:31N 51°53' E 004°19'0 0.0
2014-Dec-15 12:22N 51°53' E 004°19'0 0.0
2014-Dec-15 11:25N 51°53' E 004°19'0 0.0
2014-Dec-15 10:16N 51°53' E 004°19'0 0.0
2014-Dec-15 09:19N 51°53' E 004°19'0 0.0
2014-Dec-15 08:25N 51°53' E 004°19'0 0.0
2014-Dec-15 07:31N 51°53' E 004°19'0 0.0
2014-Dec-15 06:31N 51°53' E 004°19'0 0.0
2014-Dec-15 04:31N 51°53' E 004°19'0 0.0
2014-Dec-15 03:10N 51°53' E 004°19'0 0.0
2014-Dec-15 02:28N 51°53' E 004°19'0 0.0
2014-Dec-15 01:31N 51°53' E 004°19'0 0.0
2014-Dec-15 00:31N 51°53' E 004°19'0 0.0
2014-Dec-14 23:22N 51°53' E 004°19'0 0.0
2014-Dec-14 22:31N 51°53' E 004°19'0 0.1
2014-Dec-14 21:33N 51°53' E 004°19'7 6.8
2014-Dec-14 20:33N 51°57' E 004°10'1211.6
2014-Dec-14 19:34N 52°01' E 003°52'1110.7
2014-Dec-14 18:32N 51°57' E 003°35'4112.1
2014-Dec-14 15:10N 51°42' E 002°34'812.3
2014-Dec-14 14:33N 51°36' E 002°26'1212.0
2014-Dec-14 13:31N 51°27' E 002°14'1111.9
2014-Dec-14 12:33N 51°16' E 002°06'1111.5
2014-Dec-14 11:33N 51°09' E 001°52'7 6.7
2014-Dec-14 10:34N 51°02' E 001°52'1313.2
2014-Dec-14 09:33N 51°04' E 002°13'5 4.6
2014-Dec-14 08:34N 51°03' E 002°20'3 2.2
2014-Dec-14 07:07N 51°02' E 002°16'0 0.0
2014-Dec-14 05:31N 51°02' E 002°16'0 0.0
2014-Dec-14 00:25N 51°02' E 002°16'0 0.0
2014-Dec-13 23:07N 51°02' E 002°16'0 0.0
2014-Dec-13 20:16N 51°02' E 002°16'0 0.0
2014-Dec-13 16:28N 51°02' E 002°16'0 0.1
2014-Dec-13 13:29N 51°02' E 002°16'3 2.5
2014-Dec-13 12:14N 51°03' E 002°21'5 6.6
2014-Dec-13 11:27N 51°03' E 002°13'1011.1
2014-Dec-13 10:33N 51°02' E 001°57'5 4.6
2014-Dec-13 09:31N 51°04' E 001°50'0 0.0
2014-Dec-13 08:31N 51°04' E 001°50'0 0.1
2014-Dec-13 07:31N 51°03' E 001°50'0 0.1
2014-Dec-13 06:31N 51°04' E 001°50'0 0.0
2014-Dec-13 05:31N 51°04' E 001°50'0 0.0
2014-Dec-13 04:31N 51°04' E 001°50'0 0.0
2014-Dec-13 03:31N 51°04' E 001°50'0 0.0
2014-Dec-13 02:31N 51°04' E 001°50'0 0.1
2014-Dec-13 01:31N 51°03' E 001°50'0 0.1
2014-Dec-13 00:31N 51°03' E 001°50'0 0.0
2014-Dec-12 23:31N 51°03' E 001°50'0 0.0
2014-Dec-12 22:31N 51°03' E 001°50'0 0.0
2014-Dec-12 21:31N 51°03' E 001°50'0 0.0
2014-Dec-12 20:31N 51°03' E 001°50'0 0.2
2014-Dec-12 19:31N 51°03' E 001°50'4 4.5
2014-Dec-12 18:33N 51°05' E 001°43'8 8.2
2014-Dec-12 17:33N 51°13' E 001°46'9 9.0
2014-Dec-12 16:33N 51°20' E 001°53'9 8.9
2014-Dec-12 15:33N 51°28' E 002°02'9 9.2
2014-Dec-12 14:33N 51°34' E 002°12'1110.2
2014-Dec-12 13:30N 51°43' E 002°23'167 5.2
2014-Dec-11 05:29N 54°05' E 004°47'5 5.3
2014-Dec-11 04:32N 54°05' E 004°56'5 5.4
2014-Dec-11 03:32N 54°05' E 005°05'5 5.5
2014-Dec-11 02:33N 54°06' E 005°14'6 5.5
2014-Dec-11 01:33N 54°07' E 005°23'5 5.5
2014-Dec-11 00:34N 54°08' E 005°32'5 4.8
2014-Dec-10 23:32N 54°09' E 005°40'5 4.7
2014-Dec-10 22:33N 54°09' E 005°48'5 4.6
2014-Dec-10 21:33N 54°10' E 005°56'4 4.2
2014-Dec-10 20:32N 54°11' E 006°03'  

Dump ship's entire track history